West Springfield, MA (01090)

12:21 PM EDT on August 27, 2014 (GMT -0400)
Amostown Rd | Change Station
CLOSE
Current Station
Personal Weather Station
Location: West Springfield, MA
Elevation: 205 ft
Nearby Weather Stations

Elev 205 ft 42.12 °N, 72.64 °W | Updated 12 seconds ago

Partly Cloudy
Partly Cloudy
82.8 °F
Feels Like 87 °F
N
2.0
Wind Variable Wind from SSW

Today
High -- | Low -- °F
--% Chance of Precip.
Yesterday
High -- | Low -- °F
Precip. -- in
6:10 AM 7:32 PM
Waxing Crescent, 4% visible
Pressure 29.96 in
Visibility 10.0 miles
Clouds Few 3200 ft
Heat Index 87 °F
Dew Point 71 °F
Humidity 67%
Rainfall 0.00 in
Snow Depth Not available.
UV 8 out of 12
Pollen 9.30 out of 12
Ozone Good
PM2.5 Good
Flu Activity Not available.
METAR KBAF 271553Z 26007KT 10SM FEW032 29/19 A2996 RMK AO2 SLP144 T02940194

More Conditions Fewer Conditions

Pressure 29.96 in
Visibility 10.0 miles
Clouds Few 3200 ft
Heat Index 87 °F
Dew Point 71 °F
Humidity 67%
Rainfall 0.00 in
Snow Depth Not available.
UV 8 out of 12
Pollen 9.30 out of 12
Ozone Good
PM2.5 Good
Flu Activity Not available.
METAR KBAF 271553Z 26007KT 10SM FEW032 29/19 A2996 RMK AO2 SLP144 T02940194

More Conditions Fewer Conditions

10-Day Weather Forecast

Almanac

Astronomy

Aug. 27, 2014 Rise Set
Actual Time 6:10 AM EDT 7:32 PM EDT
Civil Twilight 5:41 AM EDT 8:01 PM EDT
Nautical Twilight 5:06 AM EDT 8:36 PM EDT
Astronomical Twilight 4:29 AM EDT 9:13 PM EDT
Moon 8:07 AM EDT 8:20 PM EDT
Length of Visible Light 14h 20m
Length of Day
13h 21m
Tomorrow will be 2m 40s shorter.
Waxing Crescent, 4% of the Moon is Illuminated
Today
Waxing Crescent
Sep 2
First Quarter
Sep 8
Full
Sep 15
Last Quarter
Sep 24
New

Today's Extremes

State Highs State Lows

Community

WunderPhotos

Upload Photos

1,747,724 photos uploaded!

Nearby

Air Quality

  Air Quality AQ Index Pollutant
Yesterday Good
PM2.5
Yesterday Good
OZONE
Current Good
PM2.5
Current Good
OZONE
Wednesday Moderate
OZONE
Wednesday Moderate
PM2.5

Snow Depth

Station Depth Elevation
No new snow has been reported.

Earthquake Activity

City Distance Mag. Time & Date
No recent earthquake activity has been reported nearby.
Minimum magnitude displayed is 2.5.

Coastal Water Temperatures

Place Temperature
No Stations Reporting

Nearby Weather Stations